Time;durP1;ratioP1;P1;durP2;ratioP2;P2;SDS_P1;SDS_P2;PMS_P1;PMS_P2;Temp;Humidity;BMP_temperature;BMP_pressure;BME280_temperature;BME280_humidity;BME280_pressure;Samples;Min_cycle;Max_cycle;Signal;HPM_P1;HPM_P2
2022/01/31 00:01:06;;;;;;;8.27;4.88;;;1.30;99.90;;;;;;5018008;28;20127;-65
2022/01/31 00:03:34;;;;;;;7.00;3.85;;;1.30;99.90;;;;;;5019299;28;20037;-66
2022/01/31 00:06:02;;;;;;;5.60;3.92;;;1.30;99.90;;;;;;5019367;28;20052;-66
2022/01/31 00:08:30;;;;;;;5.25;4.00;;;1.20;99.90;;;;;;5017384;28;20395;-65
2022/01/31 00:10:57;;;;;;;7.68;4.07;;;1.20;99.90;;;;;;5017602;28;20037;-66
2022/01/31 00:13:56;;;;;;;8.93;4.47;;;1.20;99.90;;;;;;5016648;28;20233;-65
2022/01/31 00:16:16;;;;;;;6.90;3.95;;;1.10;99.90;;;;;;5016917;28;20040;-66
2022/01/31 00:18:43;;;;;;;3.80;2.92;;;1.10;99.90;;;;;;5017498;28;20146;-66
2022/01/31 00:21:10;;;;;;;8.23;3.60;;;1.00;99.90;;;;;;5017309;28;20712;-66
2022/01/31 00:23:37;;;;;;;6.68;4.00;;;1.00;99.90;;;;;;5017797;28;20297;-65
2022/01/31 00:26:04;;;;;;;7.97;4.18;;;0.90;99.90;;;;;;5019004;28;20051;-66
2022/01/31 00:28:31;;;;;;;8.65;4.57;;;0.90;99.90;;;;;;5011859;28;20581;-66
2022/01/31 00:30:58;;;;;;;4.85;3.75;;;0.80;99.90;;;;;;5006335;28;20389;-64
2022/01/31 00:33:25;;;;;;;4.95;3.92;;;0.80;99.90;;;;;;5017205;28;20055;-65
2022/01/31 00:35:52;;;;;;;8.82;4.93;;;0.70;99.90;;;;;;5019082;28;20570;-65
2022/01/31 00:38:19;;;;;;;8.50;4.55;;;0.70;99.90;;;;;;5017839;28;20048;-66
2022/01/31 00:40:45;;;;;;;;;;;0.60;99.90;;;;;;5018442;28;20049;-66
2022/01/31 00:43:14;;;;;;;8.35;4.63;;;0.60;99.90;;;;;;5018325;28;20085;-66
2022/01/31 00:45:57;;;;;;;6.35;4.15;;;0.60;99.90;;;;;;5017891;28;20044;-65
2022/01/31 00:48:27;;;;;;;7.55;5.20;;;0.50;99.90;;;;;;5001273;28;20569;-66
2022/01/31 00:50:54;;;;;;;6.35;4.63;;;0.50;99.90;;;;;;5018444;28;20207;-66
2022/01/31 00:53:21;;;;;;;5.90;3.88;;;0.50;99.90;;;;;;5017332;28;20032;-66
2022/01/31 00:55:48;;;;;;;;;;;0.50;99.90;;;;;;5018443;28;20570;-66
2022/01/31 00:58:14;;;;;;;7.55;4.43;;;0.40;99.90;;;;;;5015996;28;19920;-66
2022/01/31 01:00:42;;;;;;;5.15;3.92;;;0.40;99.90;;;;;;5014884;28;20377;-65
2022/01/31 01:03:10;;;;;;;7.55;4.18;;;0.40;99.90;;;;;;5015720;28;20083;-65
2022/01/31 01:05:37;;;;;;;6.63;3.97;;;0.40;99.90;;;;;;5017072;28;20044;-65
2022/01/31 01:08:05;;;;;;;7.55;3.92;;;0.40;99.90;;;;;;5015210;28;20279;-66
2022/01/31 01:10:32;;;;;;;5.90;4.05;;;0.40;99.90;;;;;;5015993;28;20032;-66
2022/01/31 01:12:59;;;;;;;6.07;3.80;;;0.40;99.90;;;;;;5018043;28;20037;-66
2022/01/31 01:15:26;;;;;;;6.00;3.70;;;0.40;99.90;;;;;;5019726;28;20059;-65
2022/01/31 01:17:53;;;;;;;5.30;3.30;;;0.40;99.90;;;;;;5021659;28;20036;-65
2022/01/31 01:20:21;;;;;;;7.78;4.07;;;0.40;99.90;;;;;;5020586;28;20387;-64
2022/01/31 01:22:48;;;;;;;7.20;4.05;;;0.30;99.90;;;;;;5020506;28;20063;-66
2022/01/31 01:25:16;;;;;;;8.88;4.90;;;0.30;99.90;;;;;;5021365;28;20582;-66
2022/01/31 01:27:46;;;;;;;6.38;4.35;;;0.30;99.90;;;;;;5018432;28;20063;-66
2022/01/31 01:30:14;;;;;;;7.10;4.47;;;0.30;99.90;;;;;;5014814;28;20040;-66
2022/01/31 01:32:59;;;;;;;12.35;5.43;;;0.30;99.90;;;;;;5000338;28;20041;-65
2022/01/31 01:35:32;;;;;;;6.60;4.95;;;0.30;99.90;;;;;;4998920;28;20033;-66
2022/01/31 01:38:05;;;;;;;8.32;4.72;;;0.20;99.90;;;;;;4998965;28;20605;-66
2022/01/31 01:40:38;;;;;;;11.23;4.65;;;0.20;99.90;;;;;;4998263;28;20057;-66
2022/01/31 01:43:08;;;;;;;12.27;5.28;;;0.20;99.90;;;;;;4985187;28;20053;-66
2022/01/31 01:45:37;;;;;;;7.30;5.05;;;0.20;99.90;;;;;;5001799;28;20757;-65
2022/01/31 01:48:06;;;;;;;8.68;4.40;;;0.20;99.90;;;;;;4998622;28;20037;-66
2022/01/31 01:50:35;;;;;;;10.30;5.50;;;0.20;99.90;;;;;;4997569;28;20045;-65
2022/01/31 01:53:03;;;;;;;10.60;5.47;;;0.20;99.90;;;;;;5007799;28;20059;-66
2022/01/31 01:55:30;;;;;;;9.55;4.88;;;0.20;99.90;;;;;;5018209;28;20837;-65
2022/01/31 01:57:58;;;;;;;9.40;5.25;;;0.20;99.90;;;;;;5018293;28;20045;-66
2022/01/31 02:00:27;;;;;;;7.78;4.85;;;0.10;99.90;;;;;;5001658;28;20084;-66
2022/01/31 02:02:55;;;;;;;7.28;4.50;;;0.20;99.90;;;;;;5018425;28;20157;-65
2022/01/31 02:05:23;;;;;;;5.65;4.32;;;0.10;99.90;;;;;;5018320;28;20199;-65
2022/01/31 02:07:51;;;;;;;7.50;5.25;;;0.20;99.90;;;;;;5021206;28;20043;-66
2022/01/31 02:10:20;;;;;;;7.38;4.70;;;0.10;99.90;;;;;;5021002;28;20047;-65
2022/01/31 02:13:05;;;;;;;7.40;4.05;;;0.10;99.90;;;;;;5018259;28;20474;-66
2022/01/31 02:15:54;;;;;;;8.88;5.20;;;0.10;99.90;;;;;;5020910;28;20658;-65
2022/01/31 02:18:48;;;;;;;6.75;4.95;;;0.10;99.90;;;;;;5019646;28;20664;-66
2022/01/31 02:21:35;;;;;;;11.32;4.95;;;0.10;99.90;;;;;;5008573;28;20063;-66
2022/01/31 02:24:22;;;;;;;9.85;5.18;;;0.00;99.90;;;;;;5017457;28;21024;-66
2022/01/31 02:27:07;;;;;;;9.10;4.80;;;0.00;99.90;;;;;;5016219;28;20122;-65
2022/01/31 02:29:34;;;;;;;7.15;4.78;;;0.00;99.90;;;;;;5013572;28;20047;-65
2022/01/31 02:32:02;;;;;;;8.48;5.05;;;0.00;99.90;;;;;;5014081;28;20051;-66
2022/01/31 02:34:29;;;;;;;8.63;4.72;;;0.00;99.90;;;;;;5019298;28;20538;-65
2022/01/31 02:36:56;;;;;;;7.60;4.78;;;0.10;99.90;;;;;;5017926;28;20573;-65
2022/01/31 02:39:23;;;;;;;10.82;5.50;;;0.00;99.90;;;;;;5017094;28;20067;-65
2022/01/31 02:41:50;;;;;;;8.30;5.28;;;0.00;99.90;;;;;;5020276;28;20036;-66
2022/01/31 02:44:17;;;;;;;7.75;4.88;;;0.00;99.90;;;;;;5017302;28;20209;-66
2022/01/31 02:47:09;;;;;;;9.65;5.10;;;0.00;99.90;;;;;;5003695;28;20542;-66
2022/01/31 02:49:45;;;;;;;7.78;4.28;;;0.00;99.90;;;;;;5017243;28;20049;-65
2022/01/31 02:52:14;;;;;;;7.10;5.07;;;0.00;99.90;;;;;;5018851;28;20345;-65
2022/01/31 02:54:42;;;;;;;9.15;4.95;;;0.00;99.90;;;;;;5017862;28;20044;-66
2022/01/31 02:57:10;;;;;;;11.45;5.40;;;0.00;99.90;;;;;;5016872;28;20118;-66
2022/01/31 02:59:38;;;;;;;15.18;8.35;;;0.00;99.90;;;;;;5001264;28;20044;-65
2022/01/31 03:02:06;;;;;;;20.75;8.95;;;0.00;99.90;;;;;;5016690;28;20044;-65
2022/01/31 03:04:33;;;;;;;15.85;9.25;;;0.10;99.90;;;;;;5020293;28;20045;-64
2022/01/31 03:07:05;;;;;;;20.08;8.70;;;0.20;99.90;;;;;;5017513;28;20037;-65
2022/01/31 03:09:32;;;;;;;25.45;12.13;;;0.30;99.90;;;;;;5016832;28;20051;-66
2022/01/31 03:12:01;;;;;;;16.88;10.35;;;0.30;99.90;;;;;;5019326;28;20040;-66
2022/01/31 03:14:34;;;;;;;27.98;12.52;;;0.40;99.90;;;;;;5017119;28;20359;-66
2022/01/31 03:17:07;;;;;;;15.75;9.35;;;0.50;99.90;;;;;;5016391;28;20040;-66
2022/01/31 03:19:38;;;;;;;17.20;8.48;;;0.60;99.90;;;;;;5000439;28;20327;-66
2022/01/31 03:22:06;;;;;;;21.27;9.40;;;0.60;99.90;;;;;;5017748;28;20468;-66
2022/01/31 03:24:34;;;;;;;15.77;8.43;;;0.60;99.90;;;;;;5018297;28;20446;-66
2022/01/31 03:27:02;;;;;;;22.90;9.43;;;0.60;99.90;;;;;;5017035;28;20348;-68
2022/01/31 03:29:29;;;;;;;17.52;9.48;;;0.70;99.90;;;;;;5018289;28;20036;-68
2022/01/31 03:31:56;;;;;;;14.70;8.48;;;0.70;99.90;;;;;;5011366;28;20052;-68
2022/01/31 03:34:23;;;;;;;14.10;9.10;;;0.80;99.90;;;;;;5010396;28;20052;-68
2022/01/31 03:36:50;;;;;;;21.33;10.07;;;0.80;99.90;;;;;;4996933;28;20820;-68
2022/01/31 03:39:20;;;;;;;21.35;9.77;;;0.80;99.90;;;;;;4996234;28;20263;-67
2022/01/31 03:41:47;;;;;;;27.35;10.85;;;0.90;99.90;;;;;;4996372;28;20993;-68
2022/01/31 03:44:14;;;;;;;29.33;11.57;;;0.90;99.90;;;;;;4999438;28;20206;-68
2022/01/31 03:46:42;;;;;;;26.65;12.02;;;1.00;99.90;;;;;;4996747;28;20051;-68
2022/01/31 03:49:09;;;;;;;31.58;11.98;;;1.00;99.90;;;;;;4998135;28;20600;-68
2022/01/31 03:51:45;;;;;;;31.05;12.70;;;1.10;99.90;;;;;;4996260;28;20272;-68
2022/01/31 03:54:17;;;;;;;31.13;11.32;;;1.20;99.90;;;;;;5000070;28;20537;-67
2022/01/31 03:56:44;;;;;;;30.38;12.77;;;1.20;99.90;;;;;;5016321;28;20032;-68
2022/01/31 03:59:30;;;;;;;23.63;11.48;;;1.30;99.90;;;;;;5018084;28;20102;-67
2022/01/31 04:01:57;;;;;;;23.20;10.38;;;1.30;99.90;;;;;;5012363;28;20063;-68
2022/01/31 04:04:24;;;;;;;28.08;11.30;;;1.40;99.90;;;;;;5016155;28;20063;-69
2022/01/31 04:06:51;;;;;;;23.67;10.52;;;1.40;99.90;;;;;;5018208;28;20237;-68
2022/01/31 04:09:18;;;;;;;;;;;1.50;99.90;;;;;;5016752;28;20590;-68
2022/01/31 04:11:45;;;;;;;24.27;9.43;;;1.50;99.90;;;;;;5018054;28;20031;-68
2022/01/31 04:14:13;;;;;;;16.10;9.75;;;1.50;99.90;;;;;;5017668;28;20076;-68
2022/01/31 04:16:40;;;;;;;23.00;9.35;;;1.50;99.90;;;;;;5018377;28;20048;-68
2022/01/31 04:19:06;;;;;;;21.23;9.50;;;1.60;99.90;;;;;;5016597;28;20518;-68
2022/01/31 04:21:33;;;;;;;18.52;9.13;;;1.60;99.90;;;;;;5018656;28;20550;-67
2022/01/31 04:24:00;;;;;;;23.13;9.32;;;1.60;99.90;;;;;;5018087;28;20052;-67
2022/01/31 04:26:33;;;;;;;13.15;8.25;;;1.60;99.90;;;;;;5015866;28;20059;-67
2022/01/31 04:29:12;;;;;;;15.93;7.03;;;1.60;99.90;;;;;;5017135;28;20114;-68
2022/01/31 04:31:41;;;;;;;20.88;7.50;;;1.70;99.90;;;;;;5017801;28;20131;-67
2022/01/31 04:34:09;;;;;;;15.70;5.95;;;1.80;99.90;;;;;;4998473;28;20198;-68
2022/01/31 04:36:36;;;;;;;19.08;7.47;;;1.80;99.90;;;;;;4995792;28;20049;-67
2022/01/31 04:39:04;;;;;;;16.38;6.60;;;1.80;99.90;;;;;;4996383;28;20071;-67
2022/01/31 04:41:31;;;;;;;14.57;6.20;;;1.80;99.90;;;;;;4997588;28;20267;-67
2022/01/31 04:44:04;;;;;;;17.67;5.57;;;1.90;99.90;;;;;;4998186;28;20624;-68
2022/01/31 04:46:31;;;;;;;11.52;5.57;;;1.90;99.90;;;;;;4998200;28;20584;-68
2022/01/31 04:48:58;;;;;;;22.58;6.25;;;1.90;99.90;;;;;;5001295;28;20057;-67
2022/01/31 04:51:25;;;;;;;22.17;6.45;;;2.00;99.90;;;;;;5001880;28;20138;-68
2022/01/31 04:53:52;;;;;;;14.63;5.30;;;2.00;99.90;;;;;;5017545;28;20139;-68
2022/01/31 04:56:19;;;;;;;9.70;5.53;;;2.00;99.90;;;;;;5020510;28;20048;-68
2022/01/31 04:58:46;;;;;;;15.40;6.30;;;2.00;99.90;;;;;;5021329;28;20581;-67
2022/01/31 05:01:13;;;;;;;12.88;5.53;;;2.00;99.90;;;;;;5019148;28;20163;-67
2022/01/31 05:03:41;;;;;;;17.40;6.57;;;2.00;99.90;;;;;;5020852;28;20052;-68
2022/01/31 05:06:09;;;;;;;15.20;7.53;;;2.00;99.90;;;;;;5021454;28;20647;-67
2022/01/31 05:08:36;;;;;;;14.27;5.90;;;2.00;99.90;;;;;;5021064;28;20059;-68
2022/01/31 05:11:07;;;;;;;9.45;5.28;;;2.00;99.90;;;;;;5019426;28;20040;-68
2022/01/31 05:13:37;;;;;;;10.20;6.00;;;2.00;99.90;;;;;;5021893;28;20536;-68
2022/01/31 05:16:06;;;;;;;9.95;5.00;;;2.10;99.90;;;;;;5020899;28;20055;-68
2022/01/31 05:18:33;;;;;;;11.90;6.03;;;2.10;99.90;;;;;;5021533;28;20340;-68
2022/01/31 05:21:01;;;;;;;26.70;6.60;;;2.10;99.90;;;;;;5020155;28;20111;-67
2022/01/31 05:23:29;;;;;;;11.52;6.43;;;2.20;99.90;;;;;;5021728;28;20057;-68
2022/01/31 05:25:56;;;;;;;17.17;7.78;;;2.20;99.90;;;;;;5020896;28;20052;-68
2022/01/31 05:28:24;;;;;;;23.58;7.07;;;2.20;99.90;;;;;;5021372;28;20048;-68
2022/01/31 05:30:50;;;;;;;13.90;6.75;;;2.30;99.90;;;;;;5020570;28;20167;-66
2022/01/31 05:33:17;;;;;;;;;;;2.30;99.90;;;;;;5019028;28;20672;-68
2022/01/31 05:35:45;;;;;;;12.70;6.70;;;2.30;99.90;;;;;;5015843;28;19981;-67
2022/01/31 05:38:12;;;;;;;15.20;7.10;;;2.30;99.90;;;;;;5021216;28;20059;-68
2022/01/31 05:40:40;;;;;;;16.23;7.15;;;2.30;99.90;;;;;;5019723;28;20056;-67
2022/01/31 05:43:06;;;;;;;14.48;6.20;;;2.30;99.90;;;;;;5020192;28;20063;-67
2022/01/31 05:45:33;;;;;;;;;;;2.30;99.90;;;;;;5019948;28;20575;-68
2022/01/31 05:48:00;;;;;;;13.68;7.93;;;2.30;99.90;;;;;;5020583;28;19924;-68
2022/01/31 05:50:27;;;;;;;16.08;7.15;;;2.30;99.90;;;;;;5019263;28;20110;-68
2022/01/31 05:52:54;;;;;;;12.35;6.43;;;2.30;99.90;;;;;;5020223;28;20819;-68
2022/01/31 05:55:21;;;;;;;15.95;6.20;;;2.30;99.90;;;;;;5020258;28;20048;-67
2022/01/31 05:57:48;;;;;;;;;;;2.30;99.90;;;;;;5020685;28;20084;-67
2022/01/31 06:00:20;;;;;;;9.77;5.63;;;2.30;99.90;;;;;;5019872;28;20438;-68
2022/01/31 06:02:57;;;;;;;8.95;4.90;;;2.30;99.90;;;;;;5020127;28;20292;-68
2022/01/31 06:05:24;;;;;;;13.55;5.05;;;2.30;99.90;;;;;;5019665;28;20194;-51
2022/01/31 06:07:51;;;;;;;12.85;5.05;;;2.40;99.90;;;;;;5021845;28;20044;-57
2022/01/31 06:10:18;;;;;;;;;;;2.40;99.90;;;;;;5021098;28;20055;-56
2022/01/31 06:12:45;;;;;;;9.88;5.00;;;2.50;99.90;;;;;;5021454;28;20119;-56
2022/01/31 06:15:15;;;;;;;13.75;6.10;;;2.50;99.90;;;;;;5019461;28;20036;-56
2022/01/31 06:17:42;;;;;;;8.65;4.43;;;2.60;99.90;;;;;;5020919;28;20043;-57
2022/01/31 06:20:09;;;;;;;11.43;4.15;;;2.60;99.90;;;;;;5018249;28;20359;-56
2022/01/31 06:22:47;;;;;;;12.45;5.03;;;2.60;99.90;;;;;;5021526;28;20052;-56
2022/01/31 06:25:14;;;;;;;10.15;4.22;;;2.60;99.90;;;;;;5019872;28;20047;-56
2022/01/31 06:27:42;;;;;;;6.70;4.05;;;2.70;99.90;;;;;;5018427;28;20283;-56
2022/01/31 06:30:10;;;;;;;12.65;4.32;;;2.70;99.90;;;;;;5017219;28;20044;-56
2022/01/31 06:32:37;;;;;;;7.20;4.10;;;2.70;99.90;;;;;;5017715;28;20037;-56
2022/01/31 06:35:06;;;;;;;7.50;4.53;;;2.80;99.90;;;;;;5014906;28;20387;-57
2022/01/31 06:37:33;;;;;;;15.88;4.57;;;2.80;99.90;;;;;;4998744;28;20522;-56
2022/01/31 06:40:00;;;;;;;7.63;4.18;;;2.80;99.90;;;;;;5000002;28;20516;-57
2022/01/31 06:42:27;;;;;;;10.70;4.93;;;2.80;99.90;;;;;;4999377;28;20045;-56
2022/01/31 06:44:54;;;;;;;6.35;4.50;;;2.90;99.90;;;;;;5004655;28;20048;-56
2022/01/31 06:47:21;;;;;;;5.60;3.80;;;2.90;99.90;;;;;;4998695;28;20811;-56
2022/01/31 06:49:50;;;;;;;13.65;4.40;;;2.90;99.90;;;;;;5000367;28;20041;-56
2022/01/31 06:52:17;;;;;;;10.13;4.57;;;3.00;99.90;;;;;;5004147;28;20281;-56
2022/01/31 06:54:49;;;;;;;11.20;5.07;;;3.00;99.90;;;;;;5019182;28;20044;-56
2022/01/31 06:57:18;;;;;;;9.30;4.25;;;3.00;99.90;;;;;;5021575;28;20478;-56
2022/01/31 06:59:45;;;;;;;7.13;3.78;;;3.00;99.90;;;;;;5018558;28;20598;-56
2022/01/31 07:02:12;;;;;;;9.10;3.22;;;3.00;99.90;;;;;;5019708;28;20198;-57
2022/01/31 07:04:39;;;;;;;7.05;3.72;;;3.10;99.90;;;;;;5018470;28;20639;-56
2022/01/31 07:07:06;;;;;;;9.55;3.60;;;3.10;99.90;;;;;;5018170;28;20041;-57
2022/01/31 07:09:35;;;;;;;10.32;3.85;;;3.10;99.90;;;;;;5017464;28;20084;-57
2022/01/31 07:12:05;;;;;;;6.97;3.63;;;3.10;99.90;;;;;;5019249;28;20517;-56
2022/01/31 07:14:32;;;;;;;12.40;3.65;;;3.10;99.90;;;;;;5021044;28;20037;-56
2022/01/31 07:17:03;;;;;;;11.45;4.63;;;3.20;99.90;;;;;;5020488;28;20052;-56
2022/01/31 07:19:33;;;;;;;11.93;4.32;;;3.20;99.90;;;;;;5018203;28;20063;-57
2022/01/31 07:22:03;;;;;;;8.48;3.97;;;3.20;99.90;;;;;;5019178;28;20319;-57
2022/01/31 07:27:04;;;;;;;17.80;5.90;;;3.30;99.90;;;;;;5020071;28;20593;-57
2022/01/31 07:29:32;;;;;;;8.20;3.45;;;3.30;99.90;;;;;;5020051;28;20880;-57
2022/01/31 07:32:01;;;;;;;14.52;4.57;;;3.30;99.90;;;;;;5020881;28;20067;-56
2022/01/31 07:34:28;;;;;;;7.93;3.60;;;3.30;99.90;;;;;;5019525;28;20067;-56
2022/01/31 07:37:03;;;;;;;12.48;4.75;;;3.40;99.90;;;;;;5002760;28;20041;-56
2022/01/31 07:39:31;;;;;;;6.32;3.55;;;3.30;99.90;;;;;;4997224;28;20063;-56
2022/01/31 07:41:58;;;;;;;9.23;5.13;;;3.40;99.90;;;;;;5000588;28;20308;-57
2022/01/31 07:44:25;;;;;;;5.97;3.63;;;3.40;99.90;;;;;;4996632;28;20053;-57
2022/01/31 07:46:52;;;;;;;11.32;3.97;;;3.30;99.90;;;;;;5000788;28;20064;-57
2022/01/31 07:49:22;;;;;;;7.70;3.58;;;3.40;99.90;;;;;;5001142;28;20229;-56
2022/01/31 07:51:49;;;;;;;9.15;3.63;;;3.40;99.90;;;;;;4998131;28;20763;-57
2022/01/31 07:54:20;;;;;;;11.98;4.03;;;3.40;99.90;;;;;;5023340;28;20036;-57
2022/01/31 07:56:47;;;;;;;6.55;2.92;;;3.40;99.90;;;;;;5021936;28;20147;-56
2022/01/31 07:59:14;;;;;;;8.13;3.72;;;3.50;99.90;;;;;;5020299;28;20044;-57
2022/01/31 08:01:41;;;;;;;6.72;3.97;;;3.50;99.90;;;;;;5019160;28;20048;-57
2022/01/31 08:04:10;;;;;;;8.13;3.97;;;3.60;99.90;;;;;;5018702;28;20115;-57
2022/01/31 08:06:37;;;;;;;5.85;3.08;;;3.50;99.90;;;;;;5019792;28;20483;-57
2022/01/31 08:09:04;;;;;;;6.30;3.15;;;3.60;99.90;;;;;;5019161;28;20045;-57
2022/01/31 08:11:33;;;;;;;8.18;3.20;;;3.60;99.90;;;;;;5016591;28;20090;-57
2022/01/31 08:14:05;;;;;;;5.90;3.28;;;3.70;99.90;;;;;;5019101;28;20059;-56
2022/01/31 08:16:33;;;;;;;6.97;3.17;;;3.70;99.90;;;;;;5019750;28;20048;-56
2022/01/31 08:19:01;;;;;;;8.63;3.58;;;3.70;99.90;;;;;;5017278;28;20474;-57
2022/01/31 08:21:28;;;;;;;11.70;3.35;;;3.80;99.90;;;;;;5018169;28;20147;-56
2022/01/31 08:23:55;;;;;;;6.38;3.30;;;3.90;99.90;;;;;;5021252;28;20064;-56
2022/01/31 08:26:22;;;;;;;6.88;2.85;;;3.90;99.90;;;;;;5019017;28;20153;-56
2022/01/31 08:28:55;;;;;;;9.18;2.90;;;3.90;99.90;;;;;;5009497;28;20070;-56
2022/01/31 08:31:29;;;;;;;9.77;3.35;;;3.90;99.90;;;;;;5018484;28;20047;-56
2022/01/31 08:36:26;;;;;;;8.18;3.45;;;3.90;99.90;;;;;;5015207;28;20131;-57
2022/01/31 08:38:54;;;;;;;10.70;3.17;;;3.90;99.90;;;;;;4997385;28;20044;-57
2022/01/31 08:41:22;;;;;;;8.02;3.05;;;3.90;99.90;;;;;;5000267;28;20045;-57
2022/01/31 08:43:49;;;;;;;6.70;2.58;;;3.90;99.90;;;;;;5000425;28;20048;-57
2022/01/31 08:46:16;;;;;;;4.50;2.28;;;4.00;99.90;;;;;;5009936;28;20254;-56
2022/01/31 08:48:44;;;;;;;8.20;3.22;;;4.00;99.90;;;;;;5001889;28;20032;-57
2022/01/31 08:51:11;;;;;;;8.82;3.17;;;3.90;99.90;;;;;;5019072;28;20040;-56
2022/01/31 08:53:39;;;;;;;6.10;3.03;;;3.90;99.90;;;;;;5019364;28;20033;-57
2022/01/31 08:56:11;;;;;;;9.70;2.45;;;3.80;99.90;;;;;;5021633;28;20040;-57
2022/01/31 08:58:44;;;;;;;6.72;3.83;;;3.80;99.90;;;;;;5023437;28;20314;-58
2022/01/31 09:01:16;;;;;;;12.82;4.45;;;3.80;99.90;;;;;;5020932;28;20045;-57
2022/01/31 09:04:00;;;;;;;6.38;3.40;;;3.70;99.90;;;;;;5023978;28;20336;-56
2022/01/31 09:06:30;;;;;;;10.05;3.33;;;3.70;99.90;;;;;;5019253;28;20045;-57
2022/01/31 09:08:58;;;;;;;6.18;3.35;;;3.60;99.90;;;;;;5017432;28;20253;-54
2022/01/31 09:11:28;;;;;;;6.38;2.70;;;3.60;99.90;;;;;;5021536;28;20585;-56
2022/01/31 09:13:55;;;;;;;6.55;2.58;;;3.60;99.90;;;;;;5020534;28;20055;-56
2022/01/31 09:16:22;;;;;;;3.80;2.28;;;3.60;99.90;;;;;;5021965;28;20740;-57
2022/01/31 09:18:49;;;;;;;3.75;2.90;;;3.60;99.90;;;;;;5031113;28;20040;-57
2022/01/31 09:21:16;;;;;;;8.07;3.25;;;3.50;99.90;;;;;;5030134;28;20390;-58
2022/01/31 09:23:45;;;;;;;7.28;3.15;;;3.50;99.90;;;;;;5017581;28;20094;-56
2022/01/31 09:26:12;;;;;;;9.40;4.13;;;3.40;99.90;;;;;;5017931;28;20025;-55
2022/01/31 09:28:40;;;;;;;5.53;3.55;;;3.50;99.90;;;;;;5016792;28;20648;-56
2022/01/31 09:31:07;;;;;;;6.85;3.00;;;3.40;99.90;;;;;;5013286;28;20349;-56
2022/01/31 09:33:34;;;;;;;8.27;3.83;;;3.30;99.90;;;;;;5015660;28;20047;-55
2022/01/31 09:36:01;;;;;;;6.53;2.67;;;3.30;99.90;;;;;;5017925;28;20608;-56
2022/01/31 09:38:28;;;;;;;6.82;3.35;;;3.20;99.90;;;;;;5016359;28;20550;-56
2022/01/31 09:40:55;;;;;;;4.70;2.50;;;3.10;99.90;;;;;;5001192;28;20041;-56
2022/01/31 09:43:51;;;;;;;4.47;2.65;;;3.10;99.90;;;;;;5000630;28;20406;-56
2022/01/31 09:48:51;;;;;;;3.95;2.60;;;3.00;99.90;;;;;;5001990;28;20213;-56
2022/01/31 09:51:20;;;;;;;4.03;2.00;;;2.90;99.90;;;;;;4999687;28;20051;-56
2022/01/31 09:54:00;;;;;;;4.57;1.95;;;2.90;99.90;;;;;;5014052;28;20032;-56
2022/01/31 09:56:34;;;;;;;3.53;2.17;;;2.90;99.90;;;;;;5018998;28;20462;-56
2022/01/31 09:59:02;;;;;;;2.58;2.00;;;2.80;99.90;;;;;;5019066;28;20307;-57
2022/01/31 10:01:41;;;;;;;3.13;1.98;;;2.70;99.90;;;;;;5025638;28;20086;-56
2022/01/31 10:04:14;;;;;;;3.22;2.47;;;2.70;99.90;;;;;;5024713;28;20127;-56
2022/01/31 10:06:43;;;;;;;3.40;2.05;;;2.70;99.90;;;;;;5026031;28;20839;-57
2022/01/31 10:09:31;;;;;;;1.33;1.23;;;2.70;99.90;;;;;;5019860;28;21296;-57
2022/01/31 10:16:24;;;;;;;1.70;1.42;;;2.70;99.90;;;;;;5021759;28;20041;-57
2022/01/31 10:18:02;;;;;;;4.35;1.58;;;2.70;99.90;;;;;;5016320;28;20569;-57
2022/01/31 10:20:31;;;;;;;2.65;1.30;;;2.70;99.90;;;;;;5017854;28;20151;-57
2022/01/31 10:23:12;;;;;;;5.97;1.23;;;2.70;99.90;;;;;;5001582;28;20152;-57
2022/01/31 10:25:39;;;;;;;1.10;1.00;;;2.70;99.90;;;;;;4993965;28;20680;-57
2022/01/31 10:28:17;;;;;;;1.30;1.20;;;2.60;99.90;;;;;;4999430;28;20083;-56
2022/01/31 10:30:46;;;;;;;2.33;1.48;;;2.70;99.90;;;;;;4985151;28;20923;-56
2022/01/31 10:33:14;;;;;;;1.17;0.90;;;2.60;99.90;;;;;;4986441;28;20795;-56
2022/01/31 10:35:44;;;;;;;0.77;0.75;;;2.60;99.90;;;;;;4988925;28;20048;-56
2022/01/31 10:38:15;;;;;;;2.05;0.90;;;2.60;99.90;;;;;;4990068;28;20293;-56
2022/01/31 10:52:28;;;;;;;1.98;1.20;;;2.70;99.90;;;;;;5002793;28;20044;-57
2022/01/31 10:55:13;;;;;;;0.80;0.80;;;2.70;99.90;;;;;;4993114;28;20049;-57
2022/01/31 10:57:40;;;;;;;1.02;0.93;;;2.70;99.90;;;;;;4993797;28;20049;-56
2022/01/31 11:00:07;;;;;;;0.98;0.82;;;2.80;99.90;;;;;;5009042;28;20041;-56
2022/01/31 11:02:36;;;;;;;1.88;1.35;;;2.70;99.90;;;;;;5002527;28;20044;-57
2022/01/31 11:05:04;;;;;;;5.07;2.75;;;2.70;99.90;;;;;;5004377;28;20048;-57
2022/01/31 11:07:31;;;;;;;2.78;1.80;;;2.60;99.90;;;;;;5007639;28;20041;-57
2022/01/31 11:09:59;;;;;;;2.13;1.63;;;2.60;99.90;;;;;;5000280;28;20336;-57
2022/01/31 11:12:27;;;;;;;1.90;1.08;;;2.60;99.90;;;;;;5013402;28;20206;-56
2022/01/31 11:14:56;;;;;;;2.15;1.30;;;2.60;99.90;;;;;;5004999;28;20078;-57
2022/01/31 11:17:24;;;;;;;0.90;0.90;;;2.50;99.90;;;;;;5005750;28;20858;-57
2022/01/31 11:19:56;;;;;;;2.38;1.33;;;2.40;99.90;;;;;;5004547;28;20104;-57
2022/01/31 11:22:36;;;;;;;0.50;0.50;;;2.30;99.90;;;;;;5000695;28;20053;-57
2022/01/31 11:25:19;;;;;;;0.40;0.40;;;2.20;99.90;;;;;;5002472;28;20049;-57
2022/01/31 11:27:53;;;;;;;0.90;0.30;;;2.00;99.90;;;;;;5001234;28;20087;-57
2022/01/31 11:30:22;;;;;;;1.77;1.30;;;1.90;99.90;;;;;;5006852;28;20041;-57
2022/01/31 11:32:50;;;;;;;0.60;0.60;;;1.80;99.90;;;;;;5009428;28;20041;-55
2022/01/31 11:35:17;;;;;;;3.95;3.13;;;1.70;99.90;;;;;;5012550;28;20398;-54
2022/01/31 11:37:44;;;;;;;0.60;0.60;;;1.70;99.90;;;;;;5020385;28;20044;-54
2022/01/31 11:40:13;;;;;;;0.60;0.60;;;1.60;99.90;;;;;;5012529;28;20098;-56
2022/01/31 11:42:47;;;;;;;0.65;0.65;;;1.60;99.90;;;;;;5008040;28;20048;-55
2022/01/31 11:45:18;;;;;;;0.60;0.60;;;1.60;99.90;;;;;;5021005;28;20048;-56
2022/01/31 11:47:49;;;;;;;1.92;0.95;;;1.50;99.90;;;;;;5020988;28;20479;-55
2022/01/31 11:50:19;;;;;;;1.92;0.90;;;1.50;99.90;;;;;;5028704;28;20899;-55
2022/01/31 11:53:04;;;;;;;0.88;0.70;;;1.50;99.90;;;;;;5033392;28;20047;-57
2022/01/31 11:55:35;;;;;;;0.60;0.60;;;1.50;99.90;;;;;;5012885;28;20052;-58
2022/01/31 11:58:07;;;;;;;0.80;0.80;;;1.50;99.90;;;;;;5017470;28;20170;-58
2022/01/31 12:00:40;;;;;;;2.58;1.58;;;1.50;99.90;;;;;;5018701;28;20554;-58
2022/01/31 12:03:11;;;;;;;2.72;1.30;;;1.60;99.90;;;;;;5019539;28;20173;-57
2022/01/31 12:05:40;;;;;;;0.93;0.65;;;1.60;99.90;;;;;;5025429;28;20050;-57
2022/01/31 12:08:09;;;;;;;0.30;0.30;;;1.70;99.90;;;;;;5030030;28;20086;-57
2022/01/31 12:10:41;;;;;;;0.55;0.55;;;1.80;99.90;;;;;;5018115;28;20033;-57
2022/01/31 12:13:36;;;;;;;4.15;0.70;;;1.90;99.90;;;;;;5019224;28;20033;-57
2022/01/31 12:19:03;;;;;;;0.75;0.70;;;2.10;99.90;;;;;;5018005;28;20111;-58
2022/01/31 12:21:59;;;;;;;3.30;2.95;;;2.10;99.90;;;;;;5018603;28;20180;-58
2022/01/31 12:24:38;;;;;;;3.42;1.75;;;2.20;99.90;;;;;;5030706;28;20055;-58
2022/01/31 12:27:17;;;;;;;2.38;1.13;;;2.30;99.90;;;;;;5023471;28;20049;-58
2022/01/31 12:29:51;;;;;;;4.45;1.30;;;2.30;99.90;;;;;;5020359;28;20037;-58
2022/01/31 12:32:38;;;;;;;1.90;0.57;;;2.40;99.90;;;;;;5017402;28;20597;-58
2022/01/31 12:35:08;;;;;;;1.07;0.70;;;2.40;99.90;;;;;;5021639;28;20063;-57
2022/01/31 12:37:40;;;;;;;2.15;0.70;;;2.40;99.90;;;;;;5023953;28;20036;-57
2022/01/31 12:40:09;;;;;;;3.67;1.10;;;2.40;99.90;;;;;;5039043;28;20090;-58
2022/01/31 12:45:37;;;;;;;1.00;0.90;;;2.30;99.90;;;;;;5026407;28;20044;-58
2022/01/31 12:48:15;;;;;;;1.58;0.85;;;2.40;99.90;;;;;;5041115;28;20048;-58
2022/01/31 12:50:43;;;;;;;4.18;0.85;;;2.40;99.90;;;;;;5042147;28;20052;-58
2022/01/31 12:53:46;;;;;;;0.68;0.68;;;2.50;99.90;;;;;;5042481;28;20577;-58
2022/01/31 12:56:24;;;;;;;1.13;0.60;;;2.50;99.90;;;;;;5027845;28;20204;-57
2022/01/31 12:58:57;;;;;;;0.85;0.70;;;2.50;99.90;;;;;;5013203;28;20037;-58
2022/01/31 13:01:28;;;;;;;1.10;0.80;;;2.50;99.90;;;;;;4999444;28;20052;-57
2022/01/31 13:04:01;;;;;;;2.63;1.23;;;2.40;99.90;;;;;;5001477;28;20037;-59
2022/01/31 13:06:44;;;;;;;3.83;1.30;;;2.50;99.90;;;;;;5000637;28;20569;-58
2022/01/31 13:09:12;;;;;;;2.92;1.50;;;2.50;99.90;;;;;;5000971;28;20354;-58
2022/01/31 13:11:41;;;;;;;1.17;0.93;;;2.60;99.90;;;;;;5003798;28;20056;-58
2022/01/31 13:14:30;;;;;;;1.45;0.82;;;2.60;99.90;;;;;;5001613;28;20088;-57
2022/01/31 13:17:13;;;;;;;1.00;0.90;;;2.60;99.90;;;;;;5004098;28;20045;-58
2022/01/31 13:19:41;;;;;;;2.08;0.88;;;2.60;99.90;;;;;;5023993;28;20082;-57
2022/01/31 13:22:12;;;;;;;1.02;0.95;;;2.60;99.90;;;;;;5023065;28;20429;-58
2022/01/31 13:24:42;;;;;;;1.38;0.93;;;2.70;99.90;;;;;;5006059;28;20040;-58
2022/01/31 13:27:15;;;;;;;1.77;1.10;;;2.70;99.90;;;;;;5022340;28;20148;-58
2022/01/31 13:30:07;;;;;;;0.73;0.73;;;2.70;99.90;;;;;;5021102;28;20573;-58
2022/01/31 13:32:36;;;;;;;4.63;1.40;;;2.70;99.90;;;;;;5023620;28;20253;-57
2022/01/31 13:35:11;;;;;;;1.50;1.10;;;2.80;99.90;;;;;;5021964;28;20151;-57
2022/01/31 13:37:42;;;;;;;3.20;1.25;;;2.90;99.90;;;;;;5019314;28;20048;-57
2022/01/31 13:40:23;;;;;;;1.55;0.98;;;3.00;99.90;;;;;;5019484;28;20139;-57